createdAt,value
2018-10-21T00:02:30.432Z,5.10
2018-10-21T00:05:04.262Z,7.30
2018-10-21T00:07:38.199Z,5.70
2018-10-21T00:10:12.238Z,5.13
2018-10-21T00:12:46.080Z,4.97
2018-10-21T00:15:20.014Z,4.30
2018-10-21T00:17:53.908Z,5.73
2018-10-21T00:20:27.730Z,4.80
2018-10-21T00:23:01.565Z,5.43
2018-10-21T00:25:35.465Z,5.73
2018-10-21T00:28:09.512Z,5.43
2018-10-21T00:30:43.309Z,5.30
2018-10-21T00:33:17.320Z,5.43
2018-10-21T00:35:51.123Z,5.10
2018-10-21T00:38:24.966Z,5.43
2018-10-21T00:40:58.831Z,7.40
2018-10-21T00:43:32.816Z,6.40
2018-10-21T00:46:06.869Z,5.57
2018-10-21T00:48:40.724Z,5.73
2018-10-21T00:51:14.658Z,5.40
2018-10-21T00:53:48.590Z,5.43
2018-10-21T00:56:22.671Z,6.03
2018-10-21T00:58:56.676Z,4.90
2018-10-21T01:01:30.489Z,5.67
2018-10-21T01:04:04.426Z,5.97
2018-10-21T01:06:38.307Z,5.50
2018-10-21T01:09:13.639Z,5.10
2018-10-21T01:11:47.463Z,5.00
2018-10-21T01:14:21.512Z,4.53
2018-10-21T01:16:55.348Z,4.60
2018-10-21T01:19:29.295Z,4.93
2018-10-21T01:22:03.111Z,4.40
2018-10-21T01:24:37.110Z,4.83
2018-10-21T01:27:11.023Z,5.60
2018-10-21T01:29:47.808Z,5.30
2018-10-21T01:32:21.652Z,5.93
2018-10-21T01:34:55.503Z,5.57
2018-10-21T01:37:29.420Z,5.43
2018-10-21T01:43:16.869Z,5.80
2018-10-21T01:45:50.785Z,6.27
2018-10-21T01:48:25.678Z,6.97
2018-10-21T01:50:59.499Z,7.17
2018-10-21T01:53:33.393Z,6.37
2018-10-21T01:56:07.238Z,6.87
2018-10-21T01:58:41.099Z,5.83
2018-10-21T02:01:14.857Z,5.67
2018-10-21T02:03:48.726Z,5.57
2018-10-21T02:06:22.548Z,5.63
2018-10-21T02:08:56.448Z,6.37
2018-10-21T02:11:30.242Z,5.37
2018-10-21T02:14:04.139Z,5.23
2018-10-21T02:16:38.001Z,5.90
2018-10-21T02:19:11.906Z,5.40
2018-10-21T02:21:45.730Z,5.63
2018-10-21T02:24:19.597Z,5.10
2018-10-21T02:26:53.478Z,5.70
2018-10-21T02:29:27.416Z,5.50
2018-10-21T02:32:01.324Z,5.67
2018-10-21T02:34:35.239Z,7.63
2018-10-21T02:37:09.079Z,6.97
2018-10-21T02:39:42.932Z,6.70
2018-10-21T02:42:16.825Z,7.17
2018-10-21T02:44:50.755Z,6.87
2018-10-21T02:47:24.604Z,6.93
2018-10-21T02:49:58.474Z,6.83
2018-10-21T02:52:32.293Z,7.27
2018-10-21T02:55:06.349Z,8.00
2018-10-21T02:57:40.234Z,7.27
2018-10-21T03:00:14.192Z,8.40
2018-10-21T03:02:48.044Z,8.57
2018-10-21T03:05:21.959Z,7.90
2018-10-21T03:07:55.779Z,8.30
2018-10-21T03:10:29.653Z,8.20
2018-10-21T03:13:03.471Z,8.20
2018-10-21T03:15:37.332Z,8.40
2018-10-21T03:18:11.169Z,7.90
2018-10-21T03:20:45.227Z,8.13
2018-10-21T03:23:19.072Z,8.27
2018-10-21T03:25:52.975Z,8.50
2018-10-21T03:28:26.818Z,8.20
2018-10-21T03:31:00.862Z,7.90
2018-10-21T03:33:34.708Z,8.73
2018-10-21T03:36:08.649Z,8.83
2018-10-21T03:38:42.450Z,8.00
2018-10-21T03:41:16.329Z,7.97
2018-10-21T03:43:50.210Z,8.27
2018-10-21T03:46:24.170Z,8.37
2018-10-21T03:48:57.953Z,7.67
2018-10-21T03:51:31.912Z,7.30
2018-10-21T03:54:05.769Z,7.57
2018-10-21T03:56:39.770Z,6.43
2018-10-21T03:59:13.603Z,6.00
2018-10-21T04:01:47.516Z,6.23
2018-10-21T04:04:21.341Z,6.87
2018-10-21T04:06:55.158Z,7.47
2018-10-21T04:09:29.088Z,7.37
2018-10-21T04:12:02.935Z,6.80
2018-10-21T04:14:36.746Z,7.50
2018-10-21T04:17:10.608Z,7.20
2018-10-21T04:19:44.437Z,6.67
2018-10-21T04:22:18.243Z,7.53
2018-10-21T04:24:52.043Z,7.70
2018-10-21T04:27:25.986Z,7.67
2018-10-21T04:29:59.838Z,8.57
2018-10-21T04:32:34.575Z,7.90
2018-10-21T04:35:08.017Z,7.83
2018-10-21T04:38:24.571Z,7.77
2018-10-21T04:40:58.417Z,9.10
2018-10-21T04:43:32.337Z,7.70
2018-10-21T04:46:06.567Z,9.57
2018-10-21T04:48:40.416Z,9.17
2018-10-21T04:51:14.249Z,9.17
2018-10-21T04:53:48.111Z,9.60
2018-10-21T04:56:22.020Z,9.57
2018-10-21T04:58:55.905Z,8.00
2018-10-21T05:01:29.703Z,8.00
2018-10-21T05:04:03.633Z,8.93
2018-10-21T05:06:37.484Z,8.67
2018-10-21T05:09:11.449Z,8.47
2018-10-21T05:11:45.307Z,9.13
2018-10-21T05:14:19.281Z,9.80
2018-10-21T05:16:53.187Z,9.47
2018-10-21T05:19:27.193Z,10.43
2018-10-21T05:22:01.120Z,9.70
2018-10-21T05:24:34.946Z,7.77
2018-10-21T05:27:09.020Z,9.27
2018-10-21T05:29:42.995Z,9.43
2018-10-21T05:32:16.824Z,9.60
2018-10-21T05:34:50.825Z,8.40
2018-10-21T05:37:24.672Z,9.43
2018-10-21T05:39:58.696Z,9.80
2018-10-21T05:42:32.572Z,9.40
2018-10-21T05:45:07.445Z,9.00
2018-10-21T05:47:41.639Z,9.40
2018-10-21T05:50:16.393Z,10.30
2018-10-21T05:52:50.261Z,8.50
2018-10-21T05:55:24.178Z,8.70
2018-10-21T05:57:58.166Z,8.63
2018-10-21T06:00:32.037Z,7.90
2018-10-21T06:03:05.997Z,8.43
2018-10-21T06:05:43.180Z,8.97
2018-10-21T06:08:17.137Z,9.27
2018-10-21T06:10:50.983Z,7.57
2018-10-21T06:13:24.820Z,7.90
2018-10-21T06:15:58.682Z,7.93
2018-10-21T06:18:32.605Z,8.50
2018-10-21T06:21:07.158Z,9.07
2018-10-21T06:23:41.098Z,7.73
2018-10-21T06:26:14.907Z,8.93
2018-10-21T06:28:48.717Z,9.13
2018-10-21T06:31:22.717Z,8.07
2018-10-21T06:33:56.616Z,7.93
2018-10-21T06:36:30.572Z,8.07
2018-10-21T06:39:05.537Z,7.90
2018-10-21T06:41:39.384Z,8.87
2018-10-21T06:44:13.247Z,9.97
2018-10-21T06:46:47.114Z,9.93
2018-10-21T06:49:20.962Z,10.13
2018-10-21T06:51:54.833Z,11.20
2018-10-21T06:54:28.678Z,9.70
2018-10-21T06:57:02.641Z,13.50
2018-10-21T06:59:36.441Z,13.70
2018-10-21T07:02:10.298Z,14.63
2018-10-21T07:04:44.291Z,14.53
2018-10-21T07:07:18.136Z,15.67
2018-10-21T07:09:51.970Z,15.20
2018-10-21T07:12:25.843Z,15.57
2018-10-21T07:14:59.673Z,16.63
2018-10-21T07:17:33.614Z,16.17
2018-10-21T07:20:07.528Z,16.60
2018-10-21T07:22:42.257Z,14.97
2018-10-21T07:25:16.082Z,14.63
2018-10-21T07:27:50.075Z,16.47
2018-10-21T07:30:23.861Z,18.30
2018-10-21T07:32:57.749Z,17.27
2018-10-21T07:35:31.554Z,20.47
2018-10-21T07:38:05.549Z,22.17
2018-10-21T07:40:39.350Z,23.40
2018-10-21T07:43:13.280Z,21.67
2018-10-21T07:45:47.073Z,21.87
2018-10-21T07:48:21.122Z,19.33
2018-10-21T07:50:55.036Z,22.40
2018-10-21T07:53:28.881Z,26.57
2018-10-21T07:56:02.723Z,25.83
2018-10-21T07:58:36.643Z,25.20
2018-10-21T08:01:10.477Z,29.77
2018-10-21T08:03:44.298Z,29.32
2018-10-21T08:06:35.599Z,26.23
2018-10-21T08:09:11.189Z,26.23
2018-10-21T08:11:45.019Z,21.12
2018-10-21T08:14:18.984Z,25.45
2018-10-21T08:16:52.809Z,24.75
2018-10-21T08:19:26.675Z,27.70
2018-10-21T08:22:00.503Z,29.85
2018-10-21T08:24:34.421Z,27.27
2018-10-21T08:27:08.293Z,28.15
2018-10-21T08:29:42.169Z,28.87
2018-10-21T08:32:16.017Z,27.90
2018-10-21T08:34:49.858Z,27.00
2018-10-21T08:37:23.720Z,27.95
2018-10-21T08:39:57.621Z,27.60
2018-10-21T08:42:31.449Z,30.35
2018-10-21T08:45:05.393Z,31.12
2018-10-21T08:47:39.308Z,28.65
2018-10-21T08:50:14.071Z,28.75
2018-10-21T08:52:47.932Z,28.65
2018-10-21T08:55:21.789Z,28.05
2018-10-21T08:57:55.666Z,27.17
2018-10-21T09:00:29.636Z,31.62
2018-10-21T09:03:03.472Z,27.10
2018-10-21T09:05:37.454Z,28.30
2018-10-21T09:08:11.315Z,28.50
2018-10-21T09:10:45.314Z,26.27
2018-10-21T09:13:19.118Z,27.75
2018-10-21T09:15:52.995Z,28.07
2018-10-21T09:18:26.820Z,26.27
2018-10-21T09:21:00.682Z,27.00
2018-10-21T09:23:34.542Z,26.20
2018-10-21T09:26:08.445Z,26.95
2018-10-21T09:28:42.279Z,24.92
2018-10-21T09:31:16.158Z,24.20
2018-10-21T09:33:50.277Z,26.02
2018-10-21T09:36:24.287Z,24.82
2018-10-21T09:38:58.110Z,25.72
2018-10-21T09:41:32.041Z,27.95
2018-10-21T09:44:06.143Z,24.63
2018-10-21T09:46:40.776Z,26.05
2018-10-21T09:49:14.676Z,24.05
2018-10-21T09:51:48.551Z,25.60
2018-10-21T09:54:22.379Z,25.80
2018-10-21T09:56:56.462Z,23.07
2018-10-21T09:59:30.396Z,26.10
2018-10-21T10:02:09.526Z,23.22
2018-10-21T10:04:43.378Z,24.63
2018-10-21T10:07:17.316Z,24.67
2018-10-21T10:09:51.224Z,25.55
2018-10-21T10:12:25.094Z,20.75
2018-10-21T10:14:58.969Z,22.50
2018-10-21T10:17:32.915Z,20.88
2018-10-21T10:20:08.266Z,20.77
2018-10-21T10:22:42.149Z,19.67
2018-10-21T10:25:16.029Z,20.68
2018-10-21T10:27:50.001Z,21.50
2018-10-21T10:30:23.871Z,18.23
2018-10-21T10:32:57.740Z,19.10
2018-10-21T10:35:31.678Z,15.32
2018-10-21T10:38:05.639Z,14.07
2018-10-21T10:40:39.549Z,15.88
2018-10-21T10:43:13.449Z,12.98
2018-10-21T10:45:47.302Z,13.78
2018-10-21T10:48:21.157Z,14.40
2018-10-21T10:50:54.999Z,12.43
2018-10-21T10:53:28.937Z,12.82
2018-10-21T10:56:02.796Z,15.48
2018-10-21T10:58:36.657Z,13.00
2018-10-21T11:01:10.546Z,13.22
2018-10-21T11:03:44.412Z,14.35
2018-10-21T11:06:18.289Z,14.05
2018-10-21T11:08:52.088Z,13.70
2018-10-21T11:11:25.919Z,14.90
2018-10-21T11:13:59.857Z,14.33
2018-10-21T11:16:33.699Z,13.93
2018-10-21T11:19:07.596Z,13.88
2018-10-21T11:21:41.534Z,12.73
2018-10-21T11:24:15.393Z,12.53
2018-10-21T11:26:49.381Z,13.83
2018-10-21T11:29:23.378Z,15.13
2018-10-21T11:31:57.185Z,13.85
2018-10-21T11:34:31.059Z,13.05
2018-10-21T11:37:04.934Z,12.03
2018-10-21T11:39:39.034Z,12.70
2018-10-21T11:42:12.892Z,10.20
2018-10-21T11:44:46.731Z,11.97
2018-10-21T11:47:20.582Z,11.90
2018-10-21T11:49:54.492Z,11.48
2018-10-21T11:52:28.465Z,11.30
2018-10-21T11:55:02.457Z,10.13
2018-10-21T11:57:36.308Z,9.95
2018-10-21T12:00:10.680Z,11.73
2018-10-21T12:02:44.525Z,11.63
2018-10-21T12:05:18.383Z,11.15
2018-10-21T12:07:52.235Z,9.48
2018-10-21T12:10:26.084Z,8.18
2018-10-21T12:13:00.030Z,6.37
2018-10-21T12:15:34.331Z,7.85
2018-10-21T12:18:08.835Z,8.13
2018-10-21T12:20:42.722Z,8.50
2018-10-21T12:23:16.570Z,7.40
2018-10-21T12:25:50.417Z,8.23
2018-10-21T12:28:24.235Z,7.17
2018-10-21T12:30:58.099Z,7.37
2018-10-21T12:33:36.099Z,6.70
2018-10-21T12:36:10.199Z,7.92
2018-10-21T12:38:44.088Z,7.15
2018-10-21T12:41:18.116Z,7.40
2018-10-21T12:43:51.942Z,7.90
2018-10-21T12:46:25.836Z,7.40
2018-10-21T12:48:59.744Z,8.63
2018-10-21T12:51:33.619Z,8.95
2018-10-21T12:54:07.571Z,9.73
2018-10-21T12:56:41.358Z,10.08
2018-10-21T12:59:15.265Z,10.45
2018-10-21T13:01:49.152Z,11.20
2018-10-21T13:04:23.007Z,11.48
2018-10-21T13:06:56.874Z,10.50
2018-10-21T13:09:30.696Z,7.65
2018-10-21T13:12:04.586Z,6.70
2018-10-21T13:14:38.427Z,4.92
2018-10-21T13:17:12.307Z,5.22
2018-10-21T13:19:46.171Z,4.10
2018-10-21T13:22:20.087Z,4.37
2018-10-21T13:24:53.940Z,3.80
2018-10-21T13:27:27.783Z,3.72
2018-10-21T13:30:01.607Z,3.70
2018-10-21T13:32:35.474Z,3.70
2018-10-21T13:35:09.373Z,3.10
2018-10-21T13:37:43.213Z,2.62
2018-10-21T13:40:17.195Z,2.77
2018-10-21T13:42:50.994Z,3.50
2018-10-21T13:45:24.857Z,2.83
2018-10-21T13:47:58.793Z,2.75
2018-10-21T13:50:32.626Z,2.30
2018-10-21T13:53:06.565Z,2.70
2018-10-21T13:55:40.385Z,2.45
2018-10-21T13:58:14.342Z,2.55
2018-10-21T14:00:48.192Z,2.00
2018-10-21T14:03:22.174Z,2.08
2018-10-21T14:05:56.014Z,2.12
2018-10-21T14:08:29.988Z,1.67
2018-10-21T14:11:03.885Z,2.00
2018-10-21T14:13:37.755Z,1.90
2018-10-21T14:16:11.641Z,2.35
2018-10-21T14:18:45.574Z,2.65
2018-10-21T14:21:19.338Z,2.87
2018-10-21T14:23:53.309Z,2.98
2018-10-21T14:26:27.105Z,2.62
2018-10-21T14:29:01.035Z,2.67
2018-10-21T14:31:34.848Z,2.62
2018-10-21T14:34:08.756Z,3.25
2018-10-21T14:36:42.600Z,3.10
2018-10-21T14:39:16.556Z,2.60
2018-10-21T14:41:50.315Z,2.60
2018-10-21T14:44:24.192Z,1.92
2018-10-21T14:46:58.013Z,2.45
2018-10-21T14:49:31.858Z,2.83
2018-10-21T14:52:05.900Z,2.52
2018-10-21T14:54:39.741Z,2.10
2018-10-21T14:57:13.691Z,2.35
2018-10-21T14:59:47.656Z,2.40
2018-10-21T15:02:21.506Z,2.65
2018-10-21T15:04:55.403Z,2.30
2018-10-21T15:07:29.233Z,2.35
2018-10-21T15:10:03.134Z,1.92
2018-10-21T15:12:37.059Z,1.92
2018-10-21T15:15:11.608Z,2.27
2018-10-21T15:17:45.423Z,2.30
2018-10-21T15:20:19.303Z,2.08
2018-10-21T15:22:53.202Z,2.45
2018-10-21T15:25:27.079Z,2.47
2018-10-21T15:28:00.892Z,2.30
2018-10-21T15:30:34.716Z,2.80
2018-10-21T15:33:08.565Z,2.40
2018-10-21T15:35:42.436Z,2.30
2018-10-21T15:38:16.294Z,2.58
2018-10-21T15:40:50.278Z,2.60
2018-10-21T15:43:24.115Z,2.50
2018-10-21T15:45:58.025Z,2.45
2018-10-21T15:48:31.992Z,2.42
2018-10-21T15:51:05.992Z,2.52
2018-10-21T15:53:39.820Z,2.58
2018-10-21T15:56:13.877Z,2.30
2018-10-21T15:58:47.589Z,3.70
2018-10-21T16:01:21.500Z,4.00
2018-10-21T16:03:55.402Z,2.60
2018-10-21T16:06:29.268Z,3.17
2018-10-21T16:09:03.192Z,3.47
2018-10-21T16:11:37.075Z,3.12
2018-10-21T16:14:11.070Z,2.67
2018-10-21T16:16:44.922Z,2.90
2018-10-21T16:19:18.748Z,2.72
2018-10-21T16:21:52.780Z,2.83
2018-10-21T16:24:26.626Z,3.15
2018-10-21T16:27:00.483Z,3.30
2018-10-21T16:29:34.280Z,2.98
2018-10-21T16:32:08.472Z,2.90
2018-10-21T16:34:42.279Z,3.20
2018-10-21T16:37:16.188Z,3.22
2018-10-21T16:39:49.971Z,2.77
2018-10-21T16:42:23.837Z,2.90
2018-10-21T16:44:57.924Z,2.80
2018-10-21T16:47:31.781Z,2.85
2018-10-21T16:50:06.616Z,3.17
2018-10-21T16:52:40.688Z,2.90
2018-10-21T16:55:15.241Z,2.98
2018-10-21T16:57:49.136Z,3.00
2018-10-21T17:00:23.031Z,3.40
2018-10-21T17:02:57.032Z,3.75
2018-10-21T17:05:30.892Z,3.55
2018-10-21T17:08:04.805Z,3.45
2018-10-21T17:10:39.444Z,3.42
2018-10-21T17:13:13.493Z,3.25
2018-10-21T17:15:47.257Z,3.40
2018-10-21T17:18:21.218Z,2.77
2018-10-21T17:20:55.168Z,3.50
2018-10-21T17:23:29.109Z,3.08
2018-10-21T17:26:02.939Z,3.02
2018-10-21T17:28:36.823Z,3.55
2018-10-21T17:31:10.653Z,2.98
2018-10-21T17:33:44.686Z,3.22
2018-10-21T17:36:18.512Z,3.22
2018-10-21T17:38:52.372Z,3.00
2018-10-21T17:41:26.228Z,3.35
2018-10-21T17:44:00.077Z,3.45
2018-10-21T17:46:33.973Z,3.50
2018-10-21T17:49:08.011Z,3.20
2018-10-21T17:51:41.873Z,3.20
2018-10-21T17:54:15.751Z,3.47
2018-10-21T17:56:54.651Z,3.73
2018-10-21T17:59:29.092Z,3.57
2018-10-21T18:02:03.135Z,3.63
2018-10-21T18:04:37.051Z,3.70
2018-10-21T18:07:10.909Z,3.50
2018-10-21T18:09:44.866Z,3.97
2018-10-21T18:12:18.934Z,3.90
2018-10-21T18:14:52.792Z,3.97
2018-10-21T18:17:26.638Z,4.57
2018-10-21T18:20:00.573Z,3.80
2018-10-21T18:22:34.369Z,4.10
2018-10-21T18:25:09.249Z,4.27
2018-10-21T18:27:43.200Z,3.87
2018-10-21T18:30:17.088Z,3.40
2018-10-21T18:32:50.909Z,3.50
2018-10-21T18:35:24.783Z,3.60
2018-10-21T18:37:58.668Z,3.07
2018-10-21T18:40:32.530Z,3.60
2018-10-21T18:43:06.479Z,3.47
2018-10-21T18:45:40.316Z,3.90
2018-10-21T18:48:14.244Z,3.70
2018-10-21T18:50:48.180Z,3.50
2018-10-21T18:53:22.004Z,3.73
2018-10-21T18:55:55.943Z,3.83
2018-10-21T18:58:29.807Z,3.90
2018-10-21T19:01:03.760Z,3.87
2018-10-21T19:03:37.600Z,3.90
2018-10-21T19:06:11.537Z,3.80
2018-10-21T19:08:45.373Z,4.10
2018-10-21T19:11:19.421Z,4.50
2018-10-21T19:13:53.305Z,5.40
2018-10-21T19:16:27.171Z,8.50
2018-10-21T19:19:01.014Z,6.70
2018-10-21T19:21:34.889Z,6.27
2018-10-21T19:24:08.770Z,7.70
2018-10-21T19:26:42.651Z,6.53
2018-10-21T19:29:16.481Z,7.33
2018-10-21T19:31:50.350Z,5.90
2018-10-21T19:34:24.391Z,5.37
2018-10-21T19:36:58.206Z,4.90
2018-10-21T19:39:32.046Z,5.17
2018-10-21T19:42:06.059Z,5.27
2018-10-21T19:44:39.915Z,5.10
2018-10-21T19:47:13.804Z,5.50
2018-10-21T19:49:47.656Z,5.67
2018-10-21T19:52:21.525Z,5.67
2018-10-21T19:54:55.365Z,5.40
2018-10-21T19:57:29.467Z,5.50
2018-10-21T20:00:03.546Z,5.93
2018-10-21T20:02:37.501Z,6.50
2018-10-21T20:05:11.631Z,5.87
2018-10-21T20:07:45.604Z,7.07
2018-10-21T20:10:19.519Z,6.50
2018-10-21T20:12:53.428Z,6.73
2018-10-21T20:15:27.250Z,5.70
2018-10-21T20:18:01.263Z,5.60
2018-10-21T20:20:35.046Z,6.17
2018-10-21T20:23:08.981Z,6.33
2018-10-21T20:25:42.807Z,6.10
2018-10-21T20:28:16.768Z,5.87
2018-10-21T20:30:50.677Z,4.50
2018-10-21T20:33:25.944Z,4.40
2018-10-21T20:36:01.208Z,4.80
2018-10-21T20:38:36.703Z,5.10
2018-10-21T20:41:11.659Z,6.00
2018-10-21T20:43:46.507Z,5.27
2018-10-21T20:46:21.565Z,5.47
2018-10-21T20:48:55.588Z,6.13
2018-10-21T20:51:29.568Z,6.00
2018-10-21T20:54:03.518Z,5.67
2018-10-21T20:56:37.480Z,6.47
2018-10-21T20:59:11.335Z,5.80
2018-10-21T21:01:45.179Z,5.93
2018-10-21T21:04:19.116Z,6.40
2018-10-21T21:06:52.949Z,7.47
2018-10-21T21:09:26.858Z,7.93
2018-10-21T21:12:00.700Z,6.70
2018-10-21T21:14:34.816Z,5.90
2018-10-21T21:17:08.618Z,6.10
2018-10-21T21:19:42.494Z,6.43
2018-10-21T21:22:16.393Z,6.83
2018-10-21T21:24:50.286Z,5.63
2018-10-21T21:27:24.127Z,6.47
2018-10-21T21:29:58.200Z,6.03
2018-10-21T21:32:32.014Z,5.67
2018-10-21T21:35:06.893Z,7.43
2018-10-21T21:37:40.741Z,6.43
2018-10-21T21:40:14.995Z,6.77
2018-10-21T21:42:48.805Z,6.43
2018-10-21T21:45:22.742Z,5.80
2018-10-21T21:47:56.634Z,6.10
2018-10-21T21:50:30.557Z,5.87
2018-10-21T21:53:04.430Z,5.50
2018-10-21T21:55:38.265Z,5.77
2018-10-21T21:58:12.143Z,6.23
2018-10-21T22:00:46.042Z,5.73
2018-10-21T22:03:19.873Z,6.07
2018-10-21T22:05:53.781Z,5.67
2018-10-21T22:08:27.639Z,5.70
2018-10-21T22:11:01.525Z,5.80
2018-10-21T22:13:35.994Z,5.97
2018-10-21T22:16:09.902Z,5.40
2018-10-21T22:18:43.771Z,5.90
2018-10-21T22:21:17.715Z,5.73
2018-10-21T22:23:51.544Z,6.30
2018-10-21T22:26:25.430Z,5.73
2018-10-21T22:28:59.254Z,6.33
2018-10-21T22:31:33.146Z,6.03
2018-10-21T22:34:07.025Z,7.53
2018-10-21T22:36:40.933Z,7.07
2018-10-21T22:39:14.859Z,7.50
2018-10-21T22:41:48.814Z,8.80
2018-10-21T22:44:22.648Z,7.63
2018-10-21T22:46:56.488Z,8.40
2018-10-21T22:49:30.328Z,8.30
2018-10-21T22:52:04.252Z,8.13
2018-10-21T22:54:38.081Z,8.83
2018-10-21T22:57:16.990Z,8.00
2018-10-21T22:59:51.221Z,7.67
2018-10-21T23:02:25.168Z,7.83
2018-10-21T23:04:59.006Z,8.60
2018-10-21T23:07:32.867Z,8.27
2018-10-21T23:10:06.935Z,7.90
2018-10-21T23:12:40.813Z,8.37
2018-10-21T23:15:14.629Z,7.80
2018-10-21T23:17:48.504Z,7.57
2018-10-21T23:20:22.313Z,7.30
2018-10-21T23:22:56.234Z,8.43
2018-10-21T23:25:30.035Z,7.50
2018-10-21T23:28:04.115Z,6.40
2018-10-21T23:30:37.915Z,6.47
2018-10-21T23:33:11.739Z,6.90
2018-10-21T23:35:45.568Z,6.73
2018-10-21T23:38:19.426Z,6.53
2018-10-21T23:40:53.307Z,6.83
2018-10-21T23:43:27.158Z,7.27
2018-10-21T23:46:01.112Z,7.20
2018-10-21T23:48:34.946Z,6.83
2018-10-21T23:51:08.772Z,6.70
2018-10-21T23:53:42.649Z,6.90
2018-10-21T23:56:16.670Z,6.58
2018-10-21T23:58:50.714Z,7.27
